sensor_id;sensor_type;location;lat;lon;timestamp;pressure;altitude;pressure_sealevel;temperature;humidity
38852;BME280;24605;50.092;9.182;2024-02-15T00:00:15;154549.53;;;9.87;100.00
38852;BME280;24605;50.092;9.182;2024-02-15T00:02:43;154557.34;;;9.91;100.00
38852;BME280;24605;50.092;9.182;2024-02-15T00:05:10;154554.75;;;9.90;100.00
38852;BME280;24605;50.092;9.182;2024-02-15T00:07:37;154537.78;;;9.83;100.00
38852;BME280;24605;50.092;9.182;2024-02-15T00:10:04;154544.34;;;9.85;100.00
38852;BME280;24605;50.092;9.182;2024-02-15T00:12:31;154537.78;;;9.83;100.00
38852;BME280;24605;50.092;9.182;2024-02-15T00:14:58;154539.13;;;9.83;100.00
38852;BME280;24605;50.092;9.182;2024-02-15T00:17:24;154536.50;;;9.82;100.00
38852;BME280;24605;50.092;9.182;2024-02-15T00:19:52;154546.97;;;9.86;100.00
38852;BME280;24605;50.092;9.182;2024-02-15T00:22:18;154523.50;;;9.77;100.00
38852;BME280;24605;50.092;9.182;2024-02-15T00:24:46;154532.63;;;9.81;100.00
38852;BME280;24605;50.092;9.182;2024-02-15T00:27:13;154533.91;;;9.81;100.00
38852;BME280;24605;50.092;9.182;2024-02-15T00:29:40;154531.28;;;9.80;100.00
38852;BME280;24605;50.092;9.182;2024-02-15T00:32:08;154524.78;;;9.78;100.00
38852;BME280;24605;50.092;9.182;2024-02-15T00:34:35;154546.97;;;9.86;100.00
38852;BME280;24605;50.092;9.182;2024-02-15T00:37:05;154524.78;;;9.78;100.00
38852;BME280;24605;50.092;9.182;2024-02-15T00:39:31;154516.94;;;9.75;100.00
38852;BME280;24605;50.092;9.182;2024-02-15T00:41:58;154526.13;;;9.78;100.00
38852;BME280;24605;50.092;9.182;2024-02-15T00:44:25;154503.94;;;9.69;100.00
38852;BME280;24605;50.092;9.182;2024-02-15T00:46:52;154516.94;;;9.75;100.00
38852;BME280;24605;50.092;9.182;2024-02-15T00:49:18;154533.91;;;9.81;100.00
38852;BME280;24605;50.092;9.182;2024-02-15T00:51:47;154546.97;;;9.86;100.00
38852;BME280;24605;50.092;9.182;2024-02-15T00:54:15;154514.38;;;9.74;100.00
38852;BME280;24605;50.092;9.182;2024-02-15T00:56:42;154496.13;;;9.66;100.00
38852;BME280;24605;50.092;9.182;2024-02-15T00:59:08;154480.50;;;9.60;100.00
38852;BME280;24605;50.092;9.182;2024-02-15T01:01:35;154496.13;;;9.66;100.00
38852;BME280;24605;50.092;9.182;2024-02-15T01:04:03;154503.94;;;9.69;100.00
38852;BME280;24605;50.092;9.182;2024-02-15T01:06:30;154474.00;;;9.57;100.00
38852;BME280;24605;50.092;9.182;2024-02-15T01:08:57;154509.16;;;9.71;100.00
38852;BME280;24605;50.092;9.182;2024-02-15T01:11:27;154541.72;;;9.84;100.00
38852;BME280;24605;50.092;9.182;2024-02-15T01:13:55;154543.00;;;9.85;100.00
38852;BME280;24605;50.092;9.182;2024-02-15T01:16:21;154537.78;;;9.83;100.00
38852;BME280;24605;50.092;9.182;2024-02-15T01:18:48;154484.38;;;9.62;100.00
38852;BME280;24605;50.092;9.182;2024-02-15T01:21:15;154487.00;;;9.63;100.00
38852;BME280;24605;50.092;9.182;2024-02-15T01:23:42;154471.38;;;9.56;100.00
38852;BME280;24605;50.092;9.182;2024-02-15T01:26:09;154470.09;;;9.56;100.00
38852;BME280;24605;50.092;9.182;2024-02-15T01:28:38;154390.66;;;9.24;100.00
38852;BME280;24605;50.092;9.182;2024-02-15T01:31:07;154506.56;;;9.70;100.00
38852;BME280;24605;50.092;9.182;2024-02-15T01:33:35;154530.00;;;9.80;100.00
38852;BME280;24605;50.092;9.182;2024-02-15T01:36:02;154519.56;;;9.76;100.00
38852;BME280;24605;50.092;9.182;2024-02-15T01:38:29;154532.63;;;9.81;100.00
38852;BME280;24605;50.092;9.182;2024-02-15T01:40:55;154515.66;;;9.74;100.00
38852;BME280;24605;50.092;9.182;2024-02-15T01:43:22;154511.78;;;9.72;100.00
38852;BME280;24605;50.092;9.182;2024-02-15T01:45:49;154503.94;;;9.69;100.00
38852;BME280;24605;50.092;9.182;2024-02-15T01:48:16;154530.00;;;9.80;100.00
38852;BME280;24605;50.092;9.182;2024-02-15T01:50:43;154536.50;;;9.82;100.00
38852;BME280;24605;50.092;9.182;2024-02-15T01:53:11;154507.84;;;9.71;100.00
38852;BME280;24605;50.092;9.182;2024-02-15T01:55:38;154530.00;;;9.80;100.00
38852;BME280;24605;50.092;9.182;2024-02-15T01:58:06;154498.72;;;9.67;100.00
38852;BME280;24605;50.092;9.182;2024-02-15T02:00:32;154527.41;;;9.79;100.00
38852;BME280;24605;50.092;9.182;2024-02-15T02:03:02;154515.66;;;9.74;100.00
38852;BME280;24605;50.092;9.182;2024-02-15T02:05:29;154476.59;;;9.59;100.00
38852;BME280;24605;50.092;9.182;2024-02-15T02:07:56;154520.88;;;9.76;100.00
38852;BME280;24605;50.092;9.182;2024-02-15T02:10:26;154524.78;;;9.78;100.00
38852;BME280;24605;50.092;9.182;2024-02-15T02:12:58;154531.28;;;9.80;100.00
38852;BME280;24605;50.092;9.182;2024-02-15T02:15:24;154535.22;;;9.82;100.00
38852;BME280;24605;50.092;9.182;2024-02-15T02:17:51;154530.00;;;9.80;100.00
38852;BME280;24605;50.092;9.182;2024-02-15T02:20:19;154505.22;;;9.70;100.00
38852;BME280;24605;50.092;9.182;2024-02-15T02:22:48;154510.44;;;9.72;100.00
38852;BME280;24605;50.092;9.182;2024-02-15T02:25:18;154533.91;;;9.81;100.00
38852;BME280;24605;50.092;9.182;2024-02-15T02:27:45;154519.56;;;9.76;100.00
38852;BME280;24605;50.092;9.182;2024-02-15T02:30:15;154541.72;;;9.84;100.00
38852;BME280;24605;50.092;9.182;2024-02-15T02:32:44;154536.50;;;9.82;100.00
38852;BME280;24605;50.092;9.182;2024-02-15T02:35:10;154524.78;;;9.78;100.00
38852;BME280;24605;50.092;9.182;2024-02-15T02:37:38;154530.00;;;9.80;100.00
38852;BME280;24605;50.092;9.182;2024-02-15T02:40:06;154515.66;;;9.74;100.00
38852;BME280;24605;50.092;9.182;2024-02-15T02:42:35;154515.66;;;9.74;100.00
38852;BME280;24605;50.092;9.182;2024-02-15T02:45:03;154503.94;;;9.69;100.00
38852;BME280;24605;50.092;9.182;2024-02-15T02:47:30;154515.66;;;9.74;100.00
38852;BME280;24605;50.092;9.182;2024-02-15T02:49:57;154530.00;;;9.80;100.00
38852;BME280;24605;50.092;9.182;2024-02-15T02:52:23;154518.28;;;9.75;100.00
38852;BME280;24605;50.092;9.182;2024-02-15T02:54:50;154526.13;;;9.78;100.00
38852;BME280;24605;50.092;9.182;2024-02-15T02:57:16;154519.56;;;9.76;100.00
38852;BME280;24605;50.092;9.182;2024-02-15T02:59:45;154518.28;;;9.75;100.00
38852;BME280;24605;50.092;9.182;2024-02-15T03:02:12;154533.91;;;9.81;100.00
38852;BME280;24605;50.092;9.182;2024-02-15T03:04:38;154464.88;;;9.54;100.00
38852;BME280;24605;50.092;9.182;2024-02-15T03:07:06;154514.38;;;9.74;100.00
38852;BME280;24605;50.092;9.182;2024-02-15T03:09:32;154537.78;;;9.83;100.00
38852;BME280;24605;50.092;9.182;2024-02-15T03:11:59;154536.50;;;9.82;100.00
38852;BME280;24605;50.092;9.182;2024-02-15T03:14:26;154507.84;;;9.71;100.00
38852;BME280;24605;50.092;9.182;2024-02-15T03:16:56;154536.50;;;9.82;100.00
38852;BME280;24605;50.092;9.182;2024-02-15T03:19:23;154549.53;;;9.87;100.00
38852;BME280;24605;50.092;9.182;2024-02-15T03:21:51;154549.53;;;9.87;100.00
38852;BME280;24605;50.092;9.182;2024-02-15T03:24:18;154556.06;;;9.90;100.00
38852;BME280;24605;50.092;9.182;2024-02-15T03:26:44;154523.50;;;9.77;100.00
38852;BME280;24605;50.092;9.182;2024-02-15T03:29:11;154497.44;;;9.67;100.00
38852;BME280;24605;50.092;9.182;2024-02-15T03:31:38;154524.78;;;9.78;100.00
38852;BME280;24605;50.092;9.182;2024-02-15T03:34:06;154531.28;;;9.80;100.00
38852;BME280;24605;50.092;9.182;2024-02-15T03:36:32;154566.47;;;9.94;100.00
38852;BME280;24605;50.092;9.182;2024-02-15T03:38:59;154572.97;;;9.97;100.00
38852;BME280;24605;50.092;9.182;2024-02-15T03:41:27;154583.41;;;10.01;100.00
38852;BME280;24605;50.092;9.182;2024-02-15T03:43:57;154571.69;;;9.96;100.00
38852;BME280;24605;50.092;9.182;2024-02-15T03:46:24;154572.97;;;9.97;100.00
38852;BME280;24605;50.092;9.182;2024-02-15T03:48:52;154588.66;;;10.03;100.00
38852;BME280;24605;50.092;9.182;2024-02-15T03:51:21;154616.00;;;10.14;100.00
38852;BME280;24605;50.092;9.182;2024-02-15T03:53:49;154591.25;;;10.04;100.00
38852;BME280;24605;50.092;9.182;2024-02-15T03:56:17;154604.25;;;10.09;100.00
38852;BME280;24605;50.092;9.182;2024-02-15T03:58:43;154561.25;;;9.92;100.00
38852;BME280;24605;50.092;9.182;2024-02-15T04:01:10;154563.84;;;9.93;100.00
38852;BME280;24605;50.092;9.182;2024-02-15T04:03:38;154595.16;;;10.06;100.00
38852;BME280;24605;50.092;9.182;2024-02-15T04:06:05;154613.38;;;10.13;100.00
38852;BME280;24605;50.092;9.182;2024-02-15T04:08:33;154602.97;;;10.09;100.00
38852;BME280;24605;50.092;9.182;2024-02-15T04:11:04;154567.81;;;9.95;100.00
38852;BME280;24605;50.092;9.182;2024-02-15T04:13:31;154571.69;;;9.96;100.00
38852;BME280;24605;50.092;9.182;2024-02-15T04:15:57;154533.91;;;9.81;100.00
38852;BME280;24605;50.092;9.182;2024-02-15T04:18:24;154559.97;;;9.92;100.00
38852;BME280;24605;50.092;9.182;2024-02-15T04:20:50;154540.41;;;9.84;100.00
38852;BME280;24605;50.092;9.182;2024-02-15T04:23:18;154539.13;;;9.83;100.00
38852;BME280;24605;50.092;9.182;2024-02-15T04:25:45;154539.13;;;9.83;100.00
38852;BME280;24605;50.092;9.182;2024-02-15T04:28:16;154489.59;;;9.64;100.00
38852;BME280;24605;50.092;9.182;2024-02-15T04:30:42;154518.28;;;9.75;100.00
38852;BME280;24605;50.092;9.182;2024-02-15T04:33:09;154507.84;;;9.71;100.00
38852;BME280;24605;50.092;9.182;2024-02-15T04:35:35;154539.13;;;9.83;100.00
38852;BME280;24605;50.092;9.182;2024-02-15T04:38:02;154540.41;;;9.84;100.00
38852;BME280;24605;50.092;9.182;2024-02-15T04:40:29;154497.44;;;9.67;100.00
38852;BME280;24605;50.092;9.182;2024-02-15T04:42:57;154511.78;;;9.72;100.00
38852;BME280;24605;50.092;9.182;2024-02-15T04:45:29;154444.03;;;9.46;100.00
38852;BME280;24605;50.092;9.182;2024-02-15T04:47:56;154475.28;;;9.58;100.00
38852;BME280;24605;50.092;9.182;2024-02-15T04:50:26;154455.75;;;9.50;100.00
38852;BME280;24605;50.092;9.182;2024-02-15T04:52:54;154458.38;;;9.51;100.00
38852;BME280;24605;50.092;9.182;2024-02-15T04:55:21;154492.22;;;9.65;100.00
38852;BME280;24605;50.092;9.182;2024-02-15T04:57:48;154484.38;;;9.62;100.00
38852;BME280;24605;50.092;9.182;2024-02-15T05:00:16;154467.50;;;9.55;100.00
38852;BME280;24605;50.092;9.182;2024-02-15T05:02:46;154455.75;;;9.50;100.00
38852;BME280;24605;50.092;9.182;2024-02-15T05:05:12;154453.16;;;9.49;100.00
38852;BME280;24605;50.092;9.182;2024-02-15T05:07:41;154462.25;;;9.53;100.00
38852;BME280;24605;50.092;9.182;2024-02-15T05:10:08;154515.66;;;9.74;100.00
38852;BME280;24605;50.092;9.182;2024-02-15T05:12:36;154492.22;;;9.65;100.00
38852;BME280;24605;50.092;9.182;2024-02-15T05:15:03;154507.84;;;9.71;100.00
38852;BME280;24605;50.092;9.182;2024-02-15T05:17:37;154477.88;;;9.59;100.00
38852;BME280;24605;50.092;9.182;2024-02-15T05:20:07;154464.88;;;9.54;100.00
38852;BME280;24605;50.092;9.182;2024-02-15T05:22:36;154460.94;;;9.52;100.00
38852;BME280;24605;50.092;9.182;2024-02-15T05:25:04;154506.56;;;9.70;100.00
38852;BME280;24605;50.092;9.182;2024-02-15T05:27:31;154505.22;;;9.70;100.00
38852;BME280;24605;50.092;9.182;2024-02-15T05:29:57;154490.94;;;9.64;100.00
38852;BME280;24605;50.092;9.182;2024-02-15T05:32:24;154472.66;;;9.57;100.00
38852;BME280;24605;50.092;9.182;2024-02-15T05:34:53;154468.78;;;9.55;100.00
38852;BME280;24605;50.092;9.182;2024-02-15T05:37:20;154449.22;;;9.48;100.00
38852;BME280;24605;50.092;9.182;2024-02-15T05:39:48;154410.16;;;9.32;100.00
38852;BME280;24605;50.092;9.182;2024-02-15T05:42:18;154412.75;;;9.33;100.00
38852;BME280;24605;50.092;9.182;2024-02-15T05:44:44;154440.09;;;9.44;100.00
38852;BME280;24605;50.092;9.182;2024-02-15T05:47:11;154421.88;;;9.37;100.00
38852;BME280;24605;50.092;9.182;2024-02-15T05:49:37;154415.38;;;9.34;100.00
38852;BME280;24605;50.092;9.182;2024-02-15T05:52:05;154398.44;;;9.28;100.00
38852;BME280;24605;50.092;9.182;2024-02-15T05:54:33;154397.16;;;9.27;100.00
38852;BME280;24605;50.092;9.182;2024-02-15T05:57:00;154354.16;;;9.10;100.00
38852;BME280;24605;50.092;9.182;2024-02-15T05:59:27;154382.81;;;9.21;100.00
38852;BME280;24605;50.092;9.182;2024-02-15T06:01:54;154411.47;;;9.33;100.00
38852;BME280;24605;50.092;9.182;2024-02-15T06:04:21;154414.09;;;9.34;100.00
38852;BME280;24605;50.092;9.182;2024-02-15T06:06:48;154411.47;;;9.33;100.00
38852;BME280;24605;50.092;9.182;2024-02-15T06:09:17;154423.19;;;9.37;100.00
38852;BME280;24605;50.092;9.182;2024-02-15T06:11:47;154425.81;;;9.38;100.00
38852;BME280;24605;50.092;9.182;2024-02-15T06:14:15;154408.88;;;9.32;100.00
38852;BME280;24605;50.092;9.182;2024-02-15T06:16:43;154434.94;;;9.42;100.00
38852;BME280;24605;50.092;9.182;2024-02-15T06:19:10;154419.25;;;9.36;100.00
38852;BME280;24605;50.092;9.182;2024-02-15T06:21:36;154398.44;;;9.28;100.00
38852;BME280;24605;50.092;9.182;2024-02-15T06:24:03;154501.34;;;9.68;100.00
38852;BME280;24605;50.092;9.182;2024-02-15T06:26:31;154463.53;;;9.53;100.00
38852;BME280;24605;50.092;9.182;2024-02-15T06:29:00;154475.28;;;9.58;100.00
38852;BME280;24605;50.092;9.182;2024-02-15T06:31:55;154453.16;;;9.49;100.00
38852;BME280;24605;50.092;9.182;2024-02-15T06:34:42;154514.38;;;9.74;100.00
38852;BME280;24605;50.092;9.182;2024-02-15T06:37:35;154522.16;;;9.77;100.00
38852;BME280;24605;50.092;9.182;2024-02-15T06:40:20;154511.78;;;9.72;100.00
38852;BME280;24605;50.092;9.182;2024-02-15T06:42:49;154514.38;;;9.74;100.00
38852;BME280;24605;50.092;9.182;2024-02-15T06:45:16;154446.66;;;9.47;100.00
38852;BME280;24605;50.092;9.182;2024-02-15T06:47:43;154490.94;;;9.64;100.00
38852;BME280;24605;50.092;9.182;2024-02-15T06:50:10;154509.16;;;9.71;100.00
38852;BME280;24605;50.092;9.182;2024-02-15T06:52:37;154474.00;;;9.57;100.00
38852;BME280;24605;50.092;9.182;2024-02-15T06:55:06;154440.09;;;9.44;100.00
38852;BME280;24605;50.092;9.182;2024-02-15T06:57:33;154412.75;;;9.33;100.00
38852;BME280;24605;50.092;9.182;2024-02-15T07:00:02;154434.94;;;9.42;100.00
38852;BME280;24605;50.092;9.182;2024-02-15T07:02:30;154382.81;;;9.21;100.00
38852;BME280;24605;50.092;9.182;2024-02-15T07:04:58;154513.06;;;9.73;100.00
38852;BME280;24605;50.092;9.182;2024-02-15T07:07:24;154540.41;;;9.84;100.00
38852;BME280;24605;50.092;9.182;2024-02-15T07:09:51;154531.28;;;9.80;100.00
38852;BME280;24605;50.092;9.182;2024-02-15T07:12:18;154550.84;;;9.88;100.00
38852;BME280;24605;50.092;9.182;2024-02-15T07:14:46;154550.84;;;9.88;100.00
38852;BME280;24605;50.092;9.182;2024-02-15T07:17:14;154622.50;;;10.16;100.00
38852;BME280;24605;50.092;9.182;2024-02-15T07:19:43;154583.41;;;10.01;100.00
38852;BME280;24605;50.092;9.182;2024-02-15T07:22:09;154558.69;;;9.91;100.00
38852;BME280;24605;50.092;9.182;2024-02-15T07:24:36;154599.03;;;10.07;100.00
38852;BME280;24605;50.092;9.182;2024-02-15T07:27:03;154618.59;;;10.15;100.00
38852;BME280;24605;50.092;9.182;2024-02-15T07:29:30;154627.72;;;10.18;100.00
38852;BME280;24605;50.092;9.182;2024-02-15T07:31:57;154692.94;;;10.44;100.00
38852;BME280;24605;50.092;9.182;2024-02-15T07:34:25;154686.44;;;10.42;100.00
38852;BME280;24605;50.092;9.182;2024-02-15T07:36:52;154683.81;;;10.41;100.00
38852;BME280;24605;50.092;9.182;2024-02-15T07:39:20;154687.72;;;10.42;100.00
38852;BME280;24605;50.092;9.182;2024-02-15T07:41:50;154717.69;;;10.54;100.00
38852;BME280;24605;50.092;9.182;2024-02-15T07:44:16;154672.03;;;10.36;100.00
38852;BME280;24605;50.092;9.182;2024-02-15T07:46:43;154711.16;;;10.52;100.00
38852;BME280;24605;50.092;9.182;2024-02-15T07:49:11;154717.69;;;10.54;100.00
38852;BME280;24605;50.092;9.182;2024-02-15T07:51:38;154725.53;;;10.57;100.00
38852;BME280;24605;50.092;9.182;2024-02-15T07:54:05;154771.16;;;10.75;100.00
38852;BME280;24605;50.092;9.182;2024-02-15T07:56:32;154759.44;;;10.71;100.00
38852;BME280;24605;50.092;9.182;2024-02-15T07:59:00;154717.69;;;10.54;100.00
38852;BME280;24605;50.092;9.182;2024-02-15T08:01:28;154798.53;;;10.86;100.00
38852;BME280;24605;50.092;9.182;2024-02-15T08:03:56;154790.69;;;10.83;100.00
38852;BME280;24605;50.092;9.182;2024-02-15T08:06:23;154810.28;;;10.91;100.00
38852;BME280;24605;50.092;9.182;2024-02-15T08:08:54;154846.75;;;11.05;100.00
38852;BME280;24605;50.092;9.182;2024-02-15T08:11:21;154853.28;;;11.08;100.00
38852;BME280;24605;50.092;9.182;2024-02-15T08:13:49;154870.22;;;11.15;100.00
38852;BME280;24605;50.092;9.182;2024-02-15T08:16:20;154898.94;;;11.26;100.00
38852;BME280;24605;50.092;9.182;2024-02-15T08:18:48;154849.38;;;11.06;100.00
38852;BME280;24605;50.092;9.182;2024-02-15T08:21:17;154905.44;;;11.28;100.00
38852;BME280;24605;50.092;9.182;2024-02-15T08:23:46;154908.06;;;11.29;100.00
38852;BME280;24605;50.092;9.182;2024-02-15T08:26:14;154898.94;;;11.26;100.00
38852;BME280;24605;50.092;9.182;2024-02-15T08:28:42;154939.34;;;11.42;100.00
38852;BME280;24605;50.092;9.182;2024-02-15T08:31:08;154896.31;;;11.25;100.00
38852;BME280;24605;50.092;9.182;2024-02-15T08:33:36;154985.00;;;11.60;100.00
38852;BME280;24605;50.092;9.182;2024-02-15T08:36:04;155011.13;;;11.70;100.00
38852;BME280;24605;50.092;9.182;2024-02-15T08:38:32;154858.50;;;11.10;100.00
38852;BME280;24605;50.092;9.182;2024-02-15T08:40:59;154975.88;;;11.56;100.00
38852;BME280;24605;50.092;9.182;2024-02-15T08:43:27;155042.41;;;11.83;100.00
38852;BME280;24605;50.092;9.182;2024-02-15T08:45:54;155011.13;;;11.70;100.00
38852;BME280;24605;50.092;9.182;2024-02-15T08:48:21;154969.38;;;11.54;100.00
38852;BME280;24605;50.092;9.182;2024-02-15T08:50:48;154949.78;;;11.46;100.00
38852;BME280;24605;50.092;9.182;2024-02-15T08:53:15;155041.13;;;11.82;100.00
38852;BME280;24605;50.092;9.182;2024-02-15T08:55:44;155042.41;;;11.83;100.00
38852;BME280;24605;50.092;9.182;2024-02-15T08:58:11;155008.50;;;11.69;100.00
38852;BME280;24605;50.092;9.182;2024-02-15T09:00:39;155011.13;;;11.70;100.00
38852;BME280;24605;50.092;9.182;2024-02-15T09:03:10;155041.13;;;11.82;100.00
38852;BME280;24605;50.092;9.182;2024-02-15T09:05:37;155020.25;;;11.74;100.00
38852;BME280;24605;50.092;9.182;2024-02-15T09:08:04;155090.75;;;12.02;100.00
38852;BME280;24605;50.092;9.182;2024-02-15T09:10:31;155128.56;;;12.17;100.00
38852;BME280;24605;50.092;9.182;2024-02-15T09:12:58;155093.38;;;12.03;100.00
38852;BME280;24605;50.092;9.182;2024-02-15T09:15:24;155124.66;;;12.15;100.00
38852;BME280;24605;50.092;9.182;2024-02-15T09:17:52;155136.41;;;12.20;100.00
38852;BME280;24605;50.092;9.182;2024-02-15T09:20:20;155099.88;;;12.05;100.00
38852;BME280;24605;50.092;9.182;2024-02-15T09:22:48;155212.13;;;12.50;100.00
38852;BME280;24605;50.092;9.182;2024-02-15T09:25:15;155209.50;;;12.49;100.00
38852;BME280;24605;50.092;9.182;2024-02-15T09:27:42;155229.06;;;12.57;100.00
38852;BME280;24605;50.092;9.182;2024-02-15T09:30:10;155261.69;;;12.69;100.00
38852;BME280;24605;50.092;9.182;2024-02-15T09:32:37;155189.91;;;12.41;100.00
38852;BME280;24605;50.092;9.182;2024-02-15T09:35:07;155186.00;;;12.40;100.00
38852;BME280;24605;50.092;9.182;2024-02-15T09:37:34;155218.63;;;12.52;100.00
38852;BME280;24605;50.092;9.182;2024-02-15T09:40:00;155132.50;;;12.18;100.00
38852;BME280;24605;50.092;9.182;2024-02-15T09:42:31;155162.50;;;12.30;100.00
38852;BME280;24605;50.092;9.182;2024-02-15T09:45:00;155145.53;;;12.23;100.00
38852;BME280;24605;50.092;9.182;2024-02-15T09:47:33;155174.25;;;12.35;100.00
38852;BME280;24605;50.092;9.182;2024-02-15T09:50:00;155120.75;;;12.14;100.00
38852;BME280;24605;50.092;9.182;2024-02-15T09:52:28;155196.44;;;12.44;100.00
38852;BME280;24605;50.092;9.182;2024-02-15T09:54:57;155212.13;;;12.50;100.00
38852;BME280;24605;50.092;9.182;2024-02-15T09:57:25;155225.16;;;12.55;100.00
38852;BME280;24605;50.092;9.182;2024-02-15T09:59:53;155278.66;;;12.76;100.00
38852;BME280;24605;50.092;9.182;2024-02-15T10:02:20;155315.25;;;12.91;100.00
38852;BME280;24605;50.092;9.182;2024-02-15T10:04:47;155366.16;;;13.11;100.00
38852;BME280;24605;50.092;9.182;2024-02-15T10:07:15;155251.28;;;12.65;100.00
38852;BME280;24605;50.092;9.182;2024-02-15T10:09:45;155308.69;;;12.88;100.00
38852;BME280;24605;50.092;9.182;2024-02-15T10:12:12;155350.47;;;13.05;100.00
38852;BME280;24605;50.092;9.182;2024-02-15T10:14:38;155366.16;;;13.11;100.00
38852;BME280;24605;50.092;9.182;2024-02-15T10:17:15;155384.44;;;13.18;100.00
38852;BME280;24605;50.092;9.182;2024-02-15T10:19:42;155435.38;;;13.38;100.00
38852;BME280;24605;50.092;9.182;2024-02-15T10:22:10;155426.22;;;13.35;100.00
38852;BME280;24605;50.092;9.182;2024-02-15T10:24:36;155447.16;;;13.43;100.00
38852;BME280;24605;50.092;9.182;2024-02-15T10:27:06;155472.00;;;13.53;100.00
38852;BME280;24605;50.092;9.182;2024-02-15T10:29:33;155411.84;;;13.29;100.00
38852;BME280;24605;50.092;9.182;2024-02-15T10:32:00;155472.00;;;13.53;100.00
38852;BME280;24605;50.092;9.182;2024-02-15T10:34:28;155464.16;;;13.50;100.00
38852;BME280;24605;50.092;9.182;2024-02-15T10:37:09;155524.25;;;13.73;100.00
38852;BME280;24605;50.092;9.182;2024-02-15T10:39:37;155440.66;;;13.40;100.00
38852;BME280;24605;50.092;9.182;2024-02-15T10:42:07;155410.56;;;13.28;100.00
38852;BME280;24605;50.092;9.182;2024-02-15T10:44:36;155400.09;;;13.24;100.00
38852;BME280;24605;50.092;9.182;2024-02-15T10:47:04;155469.41;;;13.52;100.00
38852;BME280;24605;50.092;9.182;2024-02-15T10:49:33;155465.44;;;13.50;100.00
38852;BME280;24605;50.092;9.182;2024-02-15T10:52:01;155440.66;;;13.40;100.00
38852;BME280;24605;50.092;9.182;2024-02-15T10:54:46;155536.00;;;13.78;100.00
38852;BME280;24605;50.092;9.182;2024-02-15T10:57:17;155447.16;;;13.43;100.00
38852;BME280;24605;50.092;9.182;2024-02-15T10:59:54;155511.19;;;13.68;100.00
38852;BME280;24605;50.092;9.182;2024-02-15T11:02:27;155485.06;;;13.58;100.00
38852;BME280;24605;50.092;9.182;2024-02-15T11:05:00;155449.78;;;13.44;100.00
38852;BME280;24605;50.092;9.182;2024-02-15T11:07:29;155431.47;;;13.37;100.00
38852;BME280;24605;50.092;9.182;2024-02-15T11:09:57;155390.97;;;13.21;100.00
38852;BME280;24605;50.092;9.182;2024-02-15T11:12:28;155407.97;;;13.27;100.00
38852;BME280;24605;50.092;9.182;2024-02-15T11:14:56;155330.91;;;12.97;100.00
38852;BME280;24605;50.092;9.182;2024-02-15T11:17:47;155400.09;;;13.24;100.00
38852;BME280;24605;50.092;9.182;2024-02-15T11:20:46;155435.38;;;13.38;100.00
38852;BME280;24605;50.092;9.182;2024-02-15T11:23:24;155449.78;;;13.44;100.00
38852;BME280;24605;50.092;9.182;2024-02-15T11:25:52;155478.53;;;13.55;100.00
38852;BME280;24605;50.092;9.182;2024-02-15T11:28:38;155475.91;;;13.54;100.00
38852;BME280;24605;50.092;9.182;2024-02-15T11:31:09;155528.19;;;13.75;100.00
38852;BME280;24605;50.092;9.182;2024-02-15T11:33:38;155520.34;;;13.72;100.00
38852;BME280;24605;50.092;9.182;2024-02-15T11:36:06;155418.38;;;13.31;100.00
38852;BME280;24605;50.092;9.182;2024-02-15T11:38:33;155460.25;;;13.48;100.00
38852;BME280;24605;50.092;9.182;2024-02-15T11:41:01;155488.97;;;13.59;100.00
38852;BME280;24605;50.092;9.182;2024-02-15T11:43:50;155473.31;;;13.53;100.00
38852;BME280;24605;50.092;9.182;2024-02-15T11:46:22;155496.81;;;13.62;100.00
38852;BME280;24605;50.092;9.182;2024-02-15T11:48:52;155505.97;;;13.66;100.00
38852;BME280;24605;50.092;9.182;2024-02-15T11:51:26;155649.69;;;14.23;100.00
38852;BME280;24605;50.092;9.182;2024-02-15T11:54:04;155644.47;;;14.21;100.00
38852;BME280;24605;50.092;9.182;2024-02-15T11:56:54;155691.50;;;14.39;100.00
38852;BME280;24605;50.092;9.182;2024-02-15T11:59:40;155712.44;;;14.48;100.00
38852;BME280;24605;50.092;9.182;2024-02-15T12:02:19;155814.41;;;14.88;100.00
38852;BME280;24605;50.092;9.182;2024-02-15T12:05:03;155873.25;;;15.11;100.00
38852;BME280;24605;50.092;9.182;2024-02-15T12:07:47;155871.97;;;15.11;100.00
38852;BME280;24605;50.092;9.182;2024-02-15T12:10:32;155941.25;;;15.38;100.00
38852;BME280;24605;50.092;9.182;2024-02-15T12:13:17;155985.72;;;15.56;100.00
38852;BME280;24605;50.092;9.182;2024-02-15T12:16:03;156006.66;;;15.64;100.00
38852;BME280;24605;50.092;9.182;2024-02-15T12:18:48;156030.19;;;15.73;100.00
38852;BME280;24605;50.092;9.182;2024-02-15T12:21:19;156085.22;;;15.95;100.00
38852;BME280;24605;50.092;9.182;2024-02-15T12:23:48;156079.97;;;15.93;100.00
38852;BME280;24605;50.092;9.182;2024-02-15T12:26:18;156072.09;;;15.90;100.00
38852;BME280;24605;50.092;9.182;2024-02-15T12:28:50;156048.50;;;15.80;100.00
38852;BME280;24605;50.092;9.182;2024-02-15T12:31:18;156074.72;;;15.91;100.00
38852;BME280;24605;50.092;9.182;2024-02-15T12:33:45;156015.81;;;15.67;100.00
38852;BME280;24605;50.092;9.182;2024-02-15T12:36:12;155921.63;;;15.30;100.00
38852;BME280;24605;50.092;9.182;2024-02-15T12:38:38;155972.66;;;15.50;100.00
38852;BME280;24605;50.092;9.182;2024-02-15T12:41:18;155909.84;;;15.26;100.00
38852;BME280;24605;50.092;9.182;2024-02-15T12:43:45;155937.34;;;15.37;100.00
38852;BME280;24605;50.092;9.182;2024-02-15T12:46:11;155929.50;;;15.33;100.00
38852;BME280;24605;50.092;9.182;2024-02-15T12:48:39;156001.41;;;15.62;100.00
38852;BME280;24605;50.092;9.182;2024-02-15T12:51:13;156086.50;;;15.95;99.03
38852;BME280;24605;50.092;9.182;2024-02-15T12:53:39;156047.22;;;15.80;100.00